< < Back
Terminal Aerodrome Forecast


Current Version              Previous Versions:   1  2  3  4  5  6  7  8  9  

Terminal Aerodrome Forecast

827
FTUS44 KBMX 271730
TAFBHM
TAF
KBHM 271730Z 2718/2818 16008G16KT P6SM SCT050 BKN250
     FM280000 16006KT P6SM BKN250=

Latest METAR

294
SAUS70 KWBC 281300 RRC
MTRBHM
METAR KBHM 281253Z VRB03KT 10SM FEW060 OVC150 22/18 A3012 RMK AO2 SLP191
T02220178


USA.gov is the U.S. government's official web portal to all federal, state and local government web resources and services.